Terminal Aerodrome Forecast
Issued by NWS

Home | Current Version | Previous Version | Text Only | Print | Product List | Glossary On
Versions: 1 2 3 4 5 6 7 8 9 10 11 12
000
FTUS42 TJSJ 251100
TAFJMZ
TAF
TJMZ 251140Z 2512/2612 VRB05KT P6SM FEW025
     FM251430 28010KT P6SM SCT030 BKN040
     FM252230 VRB05KT P6SM FEW025
      AMD NOT SKED TIL 251600=

USA.gov is the U.S. government's official web portal to all federal, state and local government web resources and services.